createdAt,value
2022-08-19T00:01:45.173Z,19.77
2022-08-19T00:04:34.497Z,19.75
2022-08-19T00:07:01.456Z,19.73
2022-08-19T00:09:30.652Z,19.71
2022-08-19T00:11:58.173Z,19.70
2022-08-19T00:14:27.778Z,19.69
2022-08-19T00:17:08.365Z,19.69
2022-08-19T00:19:35.581Z,19.69
2022-08-19T00:22:03.051Z,19.70
2022-08-19T00:24:35.864Z,19.70
2022-08-19T00:27:25.245Z,19.71
2022-08-19T00:29:52.571Z,19.71
2022-08-19T00:32:20.822Z,19.71
2022-08-19T00:34:47.570Z,19.70
2022-08-19T00:37:14.344Z,19.67
2022-08-19T00:39:42.204Z,19.62
2022-08-19T00:42:08.993Z,19.57
2022-08-19T00:44:35.976Z,19.51
2022-08-19T00:47:07.101Z,19.45
2022-08-19T00:49:51.763Z,19.40
2022-08-19T00:52:25.536Z,19.35
2022-08-19T00:55:00.784Z,19.31
2022-08-19T00:57:32.914Z,19.27
2022-08-19T01:00:05.435Z,19.23
2022-08-19T01:02:37.968Z,19.20
2022-08-19T01:05:08.702Z,19.16
2022-08-19T01:07:38.027Z,19.14
2022-08-19T01:10:12.966Z,19.11
2022-08-19T01:12:39.744Z,19.08
2022-08-19T01:15:11.863Z,19.04
2022-08-19T01:17:42.975Z,19.00
2022-08-19T01:20:12.226Z,18.96
2022-08-19T01:23:07.921Z,18.93
2022-08-19T01:25:50.401Z,18.89
2022-08-19T01:28:19.502Z,18.85
2022-08-19T01:31:07.958Z,18.82
2022-08-19T01:33:39.699Z,18.78
2022-08-19T01:36:13.345Z,18.75
2022-08-19T01:38:45.005Z,18.72
2022-08-19T01:41:13.057Z,18.69
2022-08-19T01:44:13.266Z,18.68
2022-08-19T01:46:29.163Z,18.67
2022-08-19T01:48:56.286Z,18.68
2022-08-19T01:51:24.062Z,18.66
2022-08-19T01:53:51.652Z,18.66
2022-08-19T01:56:19.262Z,18.65
2022-08-19T01:58:52.255Z,18.65
2022-08-19T02:01:19.378Z,18.64
2022-08-19T02:03:46.409Z,18.61
2022-08-19T02:06:16.047Z,18.59
2022-08-19T02:08:43.287Z,18.58
2022-08-19T02:11:29.742Z,18.55
2022-08-19T02:14:01.689Z,18.51
2022-08-19T02:16:31.117Z,18.47
2022-08-19T02:19:02.172Z,18.43
2022-08-19T02:21:30.260Z,18.38
2022-08-19T02:23:57.442Z,18.33
2022-08-19T02:26:24.313Z,18.28
2022-08-19T02:28:57.270Z,18.24
2022-08-19T02:31:29.006Z,18.21
2022-08-19T02:33:57.009Z,18.18
2022-08-19T02:36:31.418Z,18.16
2022-08-19T02:39:01.355Z,18.15
2022-08-19T02:41:35.253Z,18.13
2022-08-19T02:44:30.018Z,18.12
2022-08-19T02:46:54.073Z,18.11
2022-08-19T02:49:20.976Z,18.10
2022-08-19T02:51:55.568Z,18.09
2022-08-19T02:54:22.361Z,18.10
2022-08-19T02:56:52.584Z,18.10
2022-08-19T02:59:22.982Z,18.10
2022-08-19T03:01:55.121Z,18.08
2022-08-19T03:04:25.141Z,18.06
2022-08-19T03:06:52.231Z,18.04
2022-08-19T03:09:20.183Z,18.02
2022-08-19T03:11:52.701Z,18.00
2022-08-19T03:14:19.826Z,17.99
2022-08-19T03:16:48.205Z,17.98
2022-08-19T03:19:21.652Z,17.96
2022-08-19T03:21:48.615Z,17.94
2022-08-19T03:24:19.166Z,17.93
2022-08-19T03:26:53.698Z,17.92
2022-08-19T03:29:30.400Z,17.89
2022-08-19T03:32:05.057Z,17.87
2022-08-19T03:34:33.727Z,17.85
2022-08-19T03:37:04.230Z,17.84
2022-08-19T03:39:32.507Z,17.85
2022-08-19T03:42:31.916Z,17.85
2022-08-19T03:44:50.100Z,17.85
2022-08-19T03:47:21.030Z,17.85
2022-08-19T03:49:52.908Z,17.89
2022-08-19T03:52:25.206Z,17.91
2022-08-19T03:54:52.271Z,17.94
2022-08-19T03:57:19.019Z,17.97
2022-08-19T03:59:45.733Z,18.00
2022-08-19T04:02:12.846Z,18.02
2022-08-19T04:04:48.348Z,18.05
2022-08-19T04:07:18.677Z,18.09
2022-08-19T04:09:47.495Z,18.13
2022-08-19T04:12:17.465Z,18.18
2022-08-19T04:14:47.024Z,18.25
2022-08-19T04:17:14.635Z,18.32
2022-08-19T04:19:43.738Z,18.39
2022-08-19T04:22:12.884Z,18.45
2022-08-19T04:24:42.027Z,18.52
2022-08-19T04:27:12.374Z,18.57
2022-08-19T04:29:42.099Z,18.62
2022-08-19T04:32:10.116Z,18.66
2022-08-19T04:34:37.451Z,18.71
2022-08-19T04:37:27.059Z,18.77
2022-08-19T04:40:14.537Z,18.83
2022-08-19T04:42:41.303Z,18.91
2022-08-19T04:45:13.600Z,18.97
2022-08-19T04:47:58.744Z,19.04
2022-08-19T04:50:42.020Z,19.12
2022-08-19T04:53:16.369Z,19.20
2022-08-19T04:55:44.495Z,19.27
2022-08-19T04:58:11.271Z,19.34
2022-08-19T05:00:41.790Z,19.41
2022-08-19T05:03:09.017Z,19.48
2022-08-19T05:05:45.536Z,19.56
2022-08-19T05:08:30.717Z,19.65
2022-08-19T05:11:08.876Z,19.74
2022-08-19T05:13:35.876Z,19.84
2022-08-19T05:16:02.704Z,19.98
2022-08-19T05:18:47.768Z,20.13
2022-08-19T05:21:35.550Z,20.30
2022-08-19T05:24:09.547Z,20.53
2022-08-19T05:26:42.066Z,20.73
2022-08-19T05:29:09.449Z,20.94
2022-08-19T05:31:41.928Z,21.18
2022-08-19T05:34:20.307Z,21.44
2022-08-19T05:36:48.238Z,21.73
2022-08-19T05:39:18.763Z,22.02
2022-08-19T05:41:47.852Z,22.32
2022-08-19T05:44:15.578Z,22.67
2022-08-19T05:46:47.374Z,23.01
2022-08-19T05:49:16.253Z,23.38
2022-08-19T05:51:43.497Z,23.80
2022-08-19T05:54:13.969Z,24.23
2022-08-19T05:56:46.210Z,24.64
2022-08-19T05:59:25.352Z,24.99
2022-08-19T06:02:19.781Z,25.45
2022-08-19T06:04:51.127Z,25.88
2022-08-19T06:07:17.992Z,26.28
2022-08-19T06:09:54.448Z,26.73
2022-08-19T06:12:34.644Z,27.26
2022-08-19T06:15:05.381Z,27.65
2022-08-19T06:17:35.757Z,28.05
2022-08-19T06:20:12.425Z,28.35
2022-08-19T06:22:45.029Z,28.66
2022-08-19T06:25:17.590Z,28.92
2022-08-19T06:30:31.927Z,29.63
2022-08-19T06:33:02.908Z,29.90
2022-08-19T06:35:33.228Z,30.19
2022-08-19T06:38:02.633Z,30.45
2022-08-19T06:40:30.596Z,30.64
2022-08-19T06:43:02.520Z,30.95
2022-08-19T06:45:41.105Z,31.31
2022-08-19T06:48:10.130Z,31.55
2022-08-19T06:50:41.122Z,31.90
2022-08-19T06:53:08.214Z,32.32
2022-08-19T06:55:38.310Z,32.60
2022-08-19T06:58:06.707Z,32.78
2022-08-19T07:00:34.213Z,32.94
2022-08-19T07:03:09.069Z,33.39
2022-08-19T07:05:47.240Z,33.66
2022-08-19T07:08:22.799Z,33.72
2022-08-19T07:10:59.411Z,34.00
2022-08-19T07:13:36.039Z,34.36
2022-08-19T07:16:06.335Z,34.55
2022-08-19T07:18:36.599Z,34.61
2022-08-19T07:21:09.465Z,34.88
2022-08-19T07:23:40.700Z,35.17
2022-08-19T07:26:08.741Z,35.49
2022-08-19T07:28:39.681Z,35.88
2022-08-19T07:31:23.075Z,36.14
2022-08-19T07:33:54.793Z,36.18
2022-08-19T07:36:25.322Z,36.09
2022-08-19T07:39:01.631Z,36.27
2022-08-19T07:41:31.228Z,36.46
2022-08-19T07:44:04.164Z,36.75
2022-08-19T07:46:39.305Z,37.06
2022-08-19T07:49:07.979Z,37.28
2022-08-19T07:51:36.491Z,37.17
2022-08-19T07:54:05.304Z,37.32
2022-08-19T07:56:32.196Z,37.52
2022-08-19T07:59:00.460Z,37.67
2022-08-19T08:01:28.381Z,38.05
2022-08-19T08:04:16.622Z,38.35
2022-08-19T08:07:05.599Z,38.52
2022-08-19T08:09:40.080Z,38.67
2022-08-19T08:15:12.633Z,39.19
2022-08-19T08:17:49.579Z,39.03
2022-08-19T08:20:20.374Z,39.16
2022-08-19T08:23:10.226Z,39.48
2022-08-19T08:25:39.471Z,39.67
2022-08-19T08:28:08.290Z,39.42
2022-08-19T08:30:42.027Z,39.68
2022-08-19T08:33:13.752Z,39.97
2022-08-19T08:35:44.935Z,40.15
2022-08-19T08:38:12.484Z,40.15
2022-08-19T08:40:50.323Z,40.19
2022-08-19T08:43:33.075Z,40.27
2022-08-19T08:46:06.411Z,40.29
2022-08-19T08:48:38.512Z,40.39
2022-08-19T08:51:33.069Z,40.55
2022-08-19T08:54:05.544Z,40.43
2022-08-19T08:56:35.814Z,40.38
2022-08-19T08:59:09.025Z,40.30
2022-08-19T09:01:38.809Z,40.26
2022-08-19T09:04:07.687Z,40.38
2022-08-19T09:06:41.063Z,40.65
2022-08-19T09:09:14.894Z,41.04
2022-08-19T09:11:51.081Z,41.41
2022-08-19T09:14:50.291Z,41.14
2022-08-19T09:17:20.359Z,40.81
2022-08-19T09:19:49.806Z,40.64
2022-08-19T09:22:25.369Z,40.10
2022-08-19T09:24:56.558Z,39.75
2022-08-19T09:27:41.955Z,39.62
2022-08-19T09:30:15.796Z,39.09
2022-08-19T09:32:46.150Z,38.91
2022-08-19T09:35:15.177Z,39.10
2022-08-19T09:37:49.811Z,39.38
2022-08-19T09:40:26.244Z,39.43
2022-08-19T09:43:01.708Z,39.27
2022-08-19T09:45:29.937Z,38.81
2022-08-19T09:47:57.171Z,38.60
2022-08-19T09:50:24.390Z,38.59
2022-08-19T09:52:58.616Z,38.34
2022-08-19T09:55:31.280Z,38.01
2022-08-19T09:58:03.149Z,37.61
2022-08-19T10:00:34.446Z,37.99
2022-08-19T10:03:01.263Z,38.02
2022-08-19T10:05:48.621Z,38.19
2022-08-19T10:08:18.733Z,38.68
2022-08-19T10:11:27.364Z,38.65
2022-08-19T10:13:46.657Z,38.68
2022-08-19T10:16:19.295Z,38.73
2022-08-19T10:18:53.037Z,38.88
2022-08-19T10:21:27.783Z,39.06
2022-08-19T10:24:00.722Z,38.98
2022-08-19T10:26:30.028Z,38.45
2022-08-19T10:29:00.518Z,37.97
2022-08-19T10:31:59.723Z,37.57
2022-08-19T10:34:27.672Z,37.13
2022-08-19T10:37:01.028Z,36.66
2022-08-19T10:39:30.738Z,36.86
2022-08-19T10:42:01.259Z,37.52
2022-08-19T10:44:32.211Z,37.90
2022-08-19T10:47:17.621Z,37.77
2022-08-19T10:50:11.736Z,37.43
2022-08-19T10:52:49.801Z,37.42
2022-08-19T10:55:42.746Z,37.63
2022-08-19T10:58:14.576Z,37.66
2022-08-19T11:00:49.578Z,37.91
2022-08-19T11:03:17.491Z,38.38
2022-08-19T11:05:53.410Z,38.83
2022-08-19T11:08:24.152Z,39.15
2022-08-19T11:10:58.035Z,39.43
2022-08-19T11:13:25.580Z,39.76
2022-08-19T11:16:07.851Z,39.99
2022-08-19T11:18:39.010Z,40.01
2022-08-19T11:21:09.060Z,40.13
2022-08-19T11:23:35.913Z,40.11
2022-08-19T11:26:05.537Z,40.14
2022-08-19T11:28:42.030Z,40.01
2022-08-19T11:31:18.735Z,39.87
2022-08-19T11:33:57.416Z,39.82
2022-08-19T11:36:24.487Z,39.89
2022-08-19T11:38:51.745Z,40.05
2022-08-19T11:41:19.770Z,39.88
2022-08-19T11:43:46.907Z,39.59
2022-08-19T11:46:14.842Z,39.22
2022-08-19T11:48:41.786Z,39.11
2022-08-19T11:51:12.519Z,39.14
2022-08-19T11:53:43.560Z,39.10
2022-08-19T11:56:10.883Z,38.96
2022-08-19T11:58:38.160Z,38.79
2022-08-19T12:01:09.297Z,38.82
2022-08-19T12:03:38.386Z,38.90
2022-08-19T12:06:06.153Z,38.80
2022-08-19T12:08:33.255Z,38.64
2022-08-19T12:11:01.946Z,38.39
2022-08-19T12:13:30.830Z,38.44
2022-08-19T12:15:59.916Z,38.40
2022-08-19T12:18:27.336Z,38.23
2022-08-19T12:20:59.514Z,38.05
2022-08-19T12:23:26.460Z,37.86
2022-08-19T12:25:55.216Z,37.85
2022-08-19T12:28:23.534Z,37.69
2022-08-19T12:30:51.969Z,37.61
2022-08-19T12:33:33.177Z,37.56
2022-08-19T12:36:04.534Z,37.55
2022-08-19T12:38:32.700Z,37.39
2022-08-19T12:41:00.600Z,37.17
2022-08-19T12:43:27.844Z,36.90
2022-08-19T12:45:55.284Z,36.75
2022-08-19T12:48:34.419Z,36.76
2022-08-19T12:51:11.905Z,36.82
2022-08-19T12:53:39.591Z,36.69
2022-08-19T12:56:15.123Z,36.53
2022-08-19T12:58:42.646Z,36.48
2022-08-19T13:01:25.323Z,36.40
2022-08-19T13:03:53.217Z,36.26
2022-08-19T13:06:24.576Z,36.26
2022-08-19T13:08:57.723Z,36.42
2022-08-19T13:11:35.325Z,36.46
2022-08-19T13:14:27.485Z,36.49
2022-08-19T13:16:59.198Z,36.43
2022-08-19T13:19:27.052Z,36.46
2022-08-19T13:21:57.763Z,36.46
2022-08-19T13:24:34.066Z,36.45
2022-08-19T13:27:01.531Z,36.51
2022-08-19T13:29:50.562Z,36.38
2022-08-19T13:32:45.949Z,36.27
2022-08-19T13:35:17.733Z,36.32
2022-08-19T13:37:45.198Z,36.41
2022-08-19T13:40:20.196Z,36.50
2022-08-19T13:42:52.573Z,36.57
2022-08-19T13:45:24.813Z,36.53
2022-08-19T13:47:57.024Z,36.44
2022-08-19T13:50:32.026Z,36.37
2022-08-19T13:53:00.248Z,36.30
2022-08-19T13:55:27.481Z,36.17
2022-08-19T13:57:59.714Z,36.09
2022-08-19T14:00:35.150Z,35.95
2022-08-19T14:03:04.342Z,35.77
2022-08-19T14:05:39.205Z,35.67
2022-08-19T14:08:06.078Z,35.66
2022-08-19T14:10:37.914Z,35.62
2022-08-19T14:13:08.865Z,35.53
2022-08-19T14:15:45.012Z,35.51
2022-08-19T14:18:11.901Z,35.41
2022-08-19T14:20:42.984Z,35.38
2022-08-19T14:23:10.178Z,35.41
2022-08-19T14:25:40.789Z,35.42
2022-08-19T14:28:28.928Z,35.35
2022-08-19T14:31:02.827Z,35.34
2022-08-19T14:33:32.598Z,35.26
2022-08-19T14:36:01.076Z,35.13
2022-08-19T14:38:33.166Z,35.01
2022-08-19T14:41:14.055Z,34.95
2022-08-19T14:43:41.129Z,34.88
2022-08-19T14:46:10.953Z,34.84
2022-08-19T14:48:41.943Z,34.82
2022-08-19T14:51:09.246Z,34.79
2022-08-19T14:53:37.591Z,34.77
2022-08-19T14:56:14.571Z,34.75
2022-08-19T14:58:42.447Z,34.69
2022-08-19T15:01:13.948Z,34.62
2022-08-19T15:03:41.713Z,34.57
2022-08-19T15:06:12.634Z,34.51
2022-08-19T15:08:44.627Z,34.44
2022-08-19T15:11:23.491Z,34.35
2022-08-19T15:13:54.538Z,34.28
2022-08-19T15:16:23.166Z,34.23
2022-08-19T15:18:50.839Z,34.17
2022-08-19T15:21:26.879Z,34.09
2022-08-19T15:24:02.910Z,33.97
2022-08-19T15:26:32.739Z,33.88
2022-08-19T15:29:11.727Z,33.80
2022-08-19T15:31:39.724Z,33.69
2022-08-19T15:34:19.778Z,33.58
2022-08-19T15:36:54.274Z,33.46
2022-08-19T15:39:21.299Z,33.36
2022-08-19T15:41:50.268Z,33.30
2022-08-19T15:44:22.826Z,33.24
2022-08-19T15:46:52.723Z,33.15
2022-08-19T15:49:25.277Z,33.10
2022-08-19T15:51:57.539Z,33.04
2022-08-19T15:54:24.592Z,32.97
2022-08-19T15:57:15.133Z,32.89
2022-08-19T16:00:03.404Z,32.82
2022-08-19T16:02:53.613Z,32.75
2022-08-19T16:05:43.514Z,32.69
2022-08-19T16:08:14.718Z,32.62
2022-08-19T16:10:42.611Z,32.58
2022-08-19T16:13:11.982Z,32.51
2022-08-19T16:15:45.377Z,32.43
2022-08-19T16:18:17.389Z,32.35
2022-08-19T16:20:47.379Z,32.27
2022-08-19T16:23:15.103Z,32.16
2022-08-19T16:25:44.096Z,32.05
2022-08-19T16:28:16.766Z,31.97
2022-08-19T16:30:51.300Z,31.88
2022-08-19T16:33:22.913Z,31.79
2022-08-19T16:36:00.351Z,31.70
2022-08-19T16:38:40.087Z,31.58
2022-08-19T16:41:11.795Z,31.47
2022-08-19T16:43:46.724Z,31.36
2022-08-19T16:46:13.579Z,31.26
2022-08-19T16:48:45.991Z,31.13
2022-08-19T16:51:49.164Z,30.99
2022-08-19T16:54:17.811Z,30.82
2022-08-19T16:56:50.825Z,30.68
2022-08-19T16:59:24.702Z,30.53
2022-08-19T17:01:52.056Z,30.35
2022-08-19T17:04:18.925Z,30.18
2022-08-19T17:06:50.835Z,30.03
2022-08-19T17:09:37.948Z,29.88
2022-08-19T17:12:05.288Z,29.73
2022-08-19T17:14:32.194Z,29.59
2022-08-19T17:17:02.770Z,29.44
2022-08-19T17:19:42.546Z,29.30
2022-08-19T17:22:10.092Z,29.17
2022-08-19T17:24:42.985Z,29.03
2022-08-19T17:27:45.655Z,28.88
2022-08-19T17:30:17.398Z,28.76
2022-08-19T17:32:50.000Z,28.69
2022-08-19T17:35:24.119Z,28.60
2022-08-19T17:38:01.946Z,28.49
2022-08-19T17:40:35.709Z,28.39
2022-08-19T17:43:17.194Z,28.30
2022-08-19T17:46:11.064Z,28.18
2022-08-19T17:48:39.028Z,28.06
2022-08-19T17:51:22.017Z,27.97
2022-08-19T17:53:57.589Z,27.88
2022-08-19T17:56:32.104Z,27.77
2022-08-19T17:59:00.667Z,27.67
2022-08-19T18:01:43.846Z,27.58
2022-08-19T18:04:25.565Z,27.47
2022-08-19T18:06:54.745Z,27.38
2022-08-19T18:09:24.014Z,27.30
2022-08-19T18:11:56.931Z,27.20
2022-08-19T18:14:34.978Z,27.10
2022-08-19T18:17:08.635Z,27.01
2022-08-19T18:19:51.190Z,26.92
2022-08-19T18:22:30.866Z,26.84
2022-08-19T18:25:08.708Z,26.75
2022-08-19T18:27:35.798Z,26.66
2022-08-19T18:30:03.970Z,26.57
2022-08-19T18:32:38.008Z,26.47
2022-08-19T18:35:10.623Z,26.36
2022-08-19T18:37:45.708Z,26.27
2022-08-19T18:40:33.254Z,26.19
2022-08-19T18:43:16.296Z,26.07
2022-08-19T18:46:02.835Z,25.97
2022-08-19T18:48:50.442Z,25.88
2022-08-19T18:51:28.598Z,25.80
2022-08-19T18:54:02.086Z,25.73
2022-08-19T18:56:43.047Z,25.65
2022-08-19T18:59:15.622Z,25.59
2022-08-19T19:01:50.215Z,25.53
2022-08-19T19:04:18.811Z,25.46
2022-08-19T19:06:46.388Z,25.40
2022-08-19T19:09:22.790Z,25.33
2022-08-19T19:12:00.978Z,25.26
2022-08-19T19:14:48.752Z,25.20
2022-08-19T19:17:19.458Z,25.10
2022-08-19T19:19:47.598Z,25.03
2022-08-19T19:22:18.227Z,24.95
2022-08-19T19:24:48.432Z,24.87
2022-08-19T19:27:19.584Z,24.80
2022-08-19T19:29:52.224Z,24.73
2022-08-19T19:32:29.952Z,24.67
2022-08-19T19:34:57.023Z,24.62
2022-08-19T19:37:23.930Z,24.58
2022-08-19T19:39:52.131Z,24.55
2022-08-19T19:42:24.964Z,24.51
2022-08-19T19:44:54.767Z,24.47
2022-08-19T19:47:23.933Z,24.42
2022-08-19T19:50:14.663Z,24.39
2022-08-19T19:52:45.067Z,24.35
2022-08-19T19:55:17.516Z,24.32
2022-08-19T19:57:45.841Z,24.32
2022-08-19T20:00:16.800Z,24.30
2022-08-19T20:02:46.640Z,24.29
2022-08-19T20:05:18.851Z,24.27
2022-08-19T20:08:04.164Z,24.26
2022-08-19T20:10:39.423Z,24.25
2022-08-19T20:13:07.382Z,24.23
2022-08-19T20:15:37.900Z,24.22
2022-08-19T20:18:13.840Z,24.23
2022-08-19T20:20:46.415Z,24.24
2022-08-19T20:23:14.470Z,24.26
2022-08-19T20:25:48.766Z,24.27
2022-08-19T20:28:15.948Z,24.28
2022-08-19T20:30:48.109Z,24.30
2022-08-19T20:33:15.329Z,24.31
2022-08-19T20:35:44.589Z,24.32
2022-08-19T20:38:11.431Z,24.32
2022-08-19T20:40:40.664Z,24.32
2022-08-19T20:43:08.917Z,24.30
2022-08-19T20:45:36.634Z,24.29
2022-08-19T20:48:07.355Z,24.28
2022-08-19T20:50:35.287Z,24.27
2022-08-19T20:53:12.741Z,24.27
2022-08-19T20:55:42.134Z,24.27
2022-08-19T20:58:12.976Z,24.29
2022-08-19T21:00:40.810Z,24.33
2022-08-19T21:03:10.984Z,24.36
2022-08-19T21:05:41.059Z,24.38
2022-08-19T21:08:08.606Z,24.40
2022-08-19T21:10:42.232Z,24.43
2022-08-19T21:13:09.316Z,24.42
2022-08-19T21:15:42.963Z,24.43
2022-08-19T21:18:14.536Z,24.41
2022-08-19T21:20:41.658Z,24.39
2022-08-19T21:23:13.590Z,24.37
2022-08-19T21:25:40.628Z,24.34
2022-08-19T21:28:34.413Z,24.30
2022-08-19T21:31:10.934Z,24.26
2022-08-19T21:33:41.960Z,24.24
2022-08-19T21:36:10.461Z,24.20
2022-08-19T21:38:37.673Z,24.17
2022-08-19T21:41:08.000Z,24.14
2022-08-19T21:43:38.133Z,24.13
2022-08-19T21:46:11.420Z,24.09
2022-08-19T21:48:38.351Z,24.07
2022-08-19T21:51:05.430Z,24.04
2022-08-19T21:53:34.197Z,23.99
2022-08-19T21:56:08.358Z,23.94
2022-08-19T21:58:38.308Z,23.92
2022-08-19T22:01:11.698Z,23.86
2022-08-19T22:03:46.965Z,23.81
2022-08-19T22:06:15.864Z,23.76
2022-08-19T22:08:53.909Z,23.70
2022-08-19T22:11:25.030Z,23.65
2022-08-19T22:13:56.699Z,23.60
2022-08-19T22:16:24.162Z,23.54
2022-08-19T22:18:54.222Z,23.48
2022-08-19T22:21:39.833Z,23.42
2022-08-19T22:24:12.265Z,23.33
2022-08-19T22:27:03.712Z,23.24
2022-08-19T22:29:33.912Z,23.15
2022-08-19T22:32:27.052Z,23.05
2022-08-19T22:34:58.334Z,22.95
2022-08-19T22:37:30.082Z,22.87
2022-08-19T22:39:57.161Z,22.81
2022-08-19T22:42:24.889Z,22.75
2022-08-19T22:44:58.758Z,22.70
2022-08-19T22:47:27.159Z,22.65
2022-08-19T22:50:00.694Z,22.57
2022-08-19T22:52:31.259Z,22.51
2022-08-19T22:55:02.454Z,22.45
2022-08-19T22:57:33.546Z,22.40
2022-08-19T23:00:01.215Z,22.35
2022-08-19T23:02:32.793Z,22.30
2022-08-19T23:05:02.067Z,22.26
2022-08-19T23:07:29.143Z,22.20
2022-08-19T23:09:58.352Z,22.14
2022-08-19T23:12:32.806Z,22.08
2022-08-19T23:15:08.831Z,22.04
2022-08-19T23:17:36.436Z,21.99
2022-08-19T23:20:09.892Z,21.94
2022-08-19T23:22:41.313Z,21.88
2022-08-19T23:25:10.781Z,21.82
2022-08-19T23:27:56.222Z,21.77
2022-08-19T23:30:33.020Z,21.73
2022-08-19T23:33:04.680Z,21.66
2022-08-19T23:35:33.619Z,21.63
2022-08-19T23:38:00.759Z,21.59
2022-08-19T23:40:31.660Z,21.55
2022-08-19T23:42:58.435Z,21.52
2022-08-19T23:45:25.682Z,21.49
2022-08-19T23:47:53.303Z,21.45
2022-08-19T23:50:20.809Z,21.41
2022-08-19T23:52:58.640Z,21.37
2022-08-19T23:55:27.275Z,21.33
2022-08-19T23:57:58.115Z,21.29
